sensor_id;sensor_type;location;lat;lon;timestamp;P1;durP1;ratioP1;P2;durP2;ratioP2
3783;SDS011;1907;49.238;9.262;2022-07-21T00:02:19;22.33;;;20.30;;
3783;SDS011;1907;49.238;9.262;2022-07-21T00:04:45;30.60;;;21.73;;
3783;SDS011;1907;49.238;9.262;2022-07-21T00:07:11;20.57;;;18.90;;
3783;SDS011;1907;49.238;9.262;2022-07-21T00:09:36;22.17;;;20.30;;
3783;SDS011;1907;49.238;9.262;2022-07-21T00:12:02;25.57;;;20.97;;
3783;SDS011;1907;49.238;9.262;2022-07-21T00:14:29;23.47;;;21.47;;
3783;SDS011;1907;49.238;9.262;2022-07-21T00:16:54;26.97;;;24.40;;
3783;SDS011;1907;49.238;9.262;2022-07-21T00:19:20;33.37;;;24.53;;
3783;SDS011;1907;49.238;9.262;2022-07-21T00:21:46;27.77;;;24.77;;
3783;SDS011;1907;49.238;9.262;2022-07-21T00:24:11;39.93;;;23.90;;
3783;SDS011;1907;49.238;9.262;2022-07-21T00:26:37;28.20;;;24.67;;
3783;SDS011;1907;49.238;9.262;2022-07-21T00:29:02;31.97;;;26.57;;
3783;SDS011;1907;49.238;9.262;2022-07-21T00:31:28;34.27;;;29.77;;
3783;SDS011;1907;49.238;9.262;2022-07-21T00:33:54;55.20;;;33.17;;
3783;SDS011;1907;49.238;9.262;2022-07-21T00:36:20;38.83;;;32.30;;
3783;SDS011;1907;49.238;9.262;2022-07-21T00:38:45;34.37;;;30.87;;
3783;SDS011;1907;49.238;9.262;2022-07-21T00:41:11;35.03;;;29.33;;
3783;SDS011;1907;49.238;9.262;2022-07-21T00:43:37;39.20;;;29.37;;
3783;SDS011;1907;49.238;9.262;2022-07-21T00:46:02;35.17;;;28.47;;
3783;SDS011;1907;49.238;9.262;2022-07-21T00:48:28;37.70;;;28.70;;
3783;SDS011;1907;49.238;9.262;2022-07-21T00:50:54;32.50;;;26.60;;
3783;SDS011;1907;49.238;9.262;2022-07-21T00:53:19;36.53;;;27.70;;
3783;SDS011;1907;49.238;9.262;2022-07-21T00:55:45;35.93;;;28.13;;
3783;SDS011;1907;49.238;9.262;2022-07-21T00:58:11;33.43;;;28.10;;
3783;SDS011;1907;49.238;9.262;2022-07-21T01:00:37;31.67;;;28.27;;
3783;SDS011;1907;49.238;9.262;2022-07-21T01:03:04;28.80;;;25.80;;
3783;SDS011;1907;49.238;9.262;2022-07-21T01:05:31;29.87;;;26.90;;
3783;SDS011;1907;49.238;9.262;2022-07-21T01:07:56;43.17;;;30.53;;
3783;SDS011;1907;49.238;9.262;2022-07-21T01:10:27;36.80;;;26.17;;
3783;SDS011;1907;49.238;9.262;2022-07-21T01:12:54;46.03;;;27.70;;
3783;SDS011;1907;49.238;9.262;2022-07-21T01:15:19;28.20;;;25.60;;
3783;SDS011;1907;49.238;9.262;2022-07-21T01:17:46;34.67;;;27.00;;
3783;SDS011;1907;49.238;9.262;2022-07-21T01:20:14;28.33;;;25.60;;
3783;SDS011;1907;49.238;9.262;2022-07-21T01:22:42;38.13;;;27.43;;
3783;SDS011;1907;49.238;9.262;2022-07-21T01:25:09;36.83;;;25.67;;
3783;SDS011;1907;49.238;9.262;2022-07-21T01:27:35;38.80;;;26.20;;
3783;SDS011;1907;49.238;9.262;2022-07-21T01:30:01;33.67;;;28.37;;
3783;SDS011;1907;49.238;9.262;2022-07-21T01:32:29;32.00;;;27.33;;
3783;SDS011;1907;49.238;9.262;2022-07-21T01:34:55;34.50;;;28.20;;
3783;SDS011;1907;49.238;9.262;2022-07-21T01:37:21;35.50;;;28.17;;
3783;SDS011;1907;49.238;9.262;2022-07-21T01:39:49;41.13;;;28.17;;
3783;SDS011;1907;49.238;9.262;2022-07-21T01:42:33;36.20;;;28.30;;
3783;SDS011;1907;49.238;9.262;2022-07-21T01:44:59;39.60;;;29.37;;
3783;SDS011;1907;49.238;9.262;2022-07-21T01:47:24;43.57;;;28.73;;
3783;SDS011;1907;49.238;9.262;2022-07-21T01:49:50;34.20;;;29.10;;
3783;SDS011;1907;49.238;9.262;2022-07-21T01:52:16;40.60;;;28.73;;
3783;SDS011;1907;49.238;9.262;2022-07-21T01:54:41;39.27;;;30.70;;
3783;SDS011;1907;49.238;9.262;2022-07-21T01:57:07;33.13;;;28.20;;
3783;SDS011;1907;49.238;9.262;2022-07-21T01:59:33;37.83;;;29.07;;
3783;SDS011;1907;49.238;9.262;2022-07-21T02:01:58;32.43;;;28.80;;
3783;SDS011;1907;49.238;9.262;2022-07-21T02:04:24;36.40;;;28.57;;
3783;SDS011;1907;49.238;9.262;2022-07-21T02:06:50;35.30;;;28.90;;
3783;SDS011;1907;49.238;9.262;2022-07-21T02:09:15;32.73;;;27.10;;
3783;SDS011;1907;49.238;9.262;2022-07-21T02:11:41;30.33;;;27.03;;
3783;SDS011;1907;49.238;9.262;2022-07-21T02:14:06;32.83;;;29.27;;
3783;SDS011;1907;49.238;9.262;2022-07-21T02:16:32;32.87;;;25.60;;
3783;SDS011;1907;49.238;9.262;2022-07-21T02:18:58;31.30;;;25.50;;
3783;SDS011;1907;49.238;9.262;2022-07-21T02:21:24;32.70;;;28.47;;
3783;SDS011;1907;49.238;9.262;2022-07-21T02:23:49;29.83;;;26.90;;
3783;SDS011;1907;49.238;9.262;2022-07-21T02:26:15;29.77;;;26.63;;
3783;SDS011;1907;49.238;9.262;2022-07-21T02:28:40;27.13;;;24.30;;
3783;SDS011;1907;49.238;9.262;2022-07-21T02:31:06;26.57;;;24.10;;
3783;SDS011;1907;49.238;9.262;2022-07-21T02:33:33;27.97;;;24.73;;
3783;SDS011;1907;49.238;9.262;2022-07-21T02:35:58;31.27;;;26.37;;
3783;SDS011;1907;49.238;9.262;2022-07-21T02:38:24;32.53;;;25.90;;
3783;SDS011;1907;49.238;9.262;2022-07-21T02:40:50;33.03;;;24.73;;
3783;SDS011;1907;49.238;9.262;2022-07-21T02:43:15;27.67;;;24.77;;
3783;SDS011;1907;49.238;9.262;2022-07-21T02:45:41;28.73;;;25.70;;
3783;SDS011;1907;49.238;9.262;2022-07-21T02:48:09;26.77;;;24.37;;
3783;SDS011;1907;49.238;9.262;2022-07-21T02:50:37;30.77;;;24.27;;
3783;SDS011;1907;49.238;9.262;2022-07-21T02:53:10;33.27;;;23.30;;
3783;SDS011;1907;49.238;9.262;2022-07-21T02:55:38;27.67;;;22.87;;
3783;SDS011;1907;49.238;9.262;2022-07-21T03:00:59;28.40;;;23.70;;
3783;SDS011;1907;49.238;9.262;2022-07-21T03:03:27;27.90;;;25.10;;
3783;SDS011;1907;49.238;9.262;2022-07-21T03:05:54;27.63;;;24.70;;
3783;SDS011;1907;49.238;9.262;2022-07-21T03:08:20;23.93;;;21.73;;
3783;SDS011;1907;49.238;9.262;2022-07-21T03:10:46;26.37;;;22.40;;
3783;SDS011;1907;49.238;9.262;2022-07-21T03:13:12;23.13;;;20.73;;
3783;SDS011;1907;49.238;9.262;2022-07-21T03:15:38;21.57;;;19.43;;
3783;SDS011;1907;49.238;9.262;2022-07-21T03:18:04;25.47;;;23.00;;
3783;SDS011;1907;49.238;9.262;2022-07-21T03:20:31;25.77;;;23.17;;
3783;SDS011;1907;49.238;9.262;2022-07-21T03:22:59;26.77;;;24.07;;
3783;SDS011;1907;49.238;9.262;2022-07-21T03:25:25;25.73;;;23.27;;
3783;SDS011;1907;49.238;9.262;2022-07-21T03:27:51;24.80;;;22.67;;
3783;SDS011;1907;49.238;9.262;2022-07-21T03:30:17;27.43;;;24.50;;
3783;SDS011;1907;49.238;9.262;2022-07-21T03:32:44;28.93;;;26.10;;
3783;SDS011;1907;49.238;9.262;2022-07-21T03:35:10;28.07;;;25.07;;
3783;SDS011;1907;49.238;9.262;2022-07-21T03:37:44;27.50;;;24.60;;
3783;SDS011;1907;49.238;9.262;2022-07-21T03:40:11;27.13;;;24.23;;
3783;SDS011;1907;49.238;9.262;2022-07-21T03:42:39;29.53;;;26.53;;
3783;SDS011;1907;49.238;9.262;2022-07-21T03:45:06;26.60;;;23.90;;
3783;SDS011;1907;49.238;9.262;2022-07-21T03:47:32;27.10;;;24.23;;
3783;SDS011;1907;49.238;9.262;2022-07-21T03:49:58;25.17;;;23.10;;
3783;SDS011;1907;49.238;9.262;2022-07-21T03:52:24;29.67;;;25.23;;
3783;SDS011;1907;49.238;9.262;2022-07-21T03:54:49;25.40;;;23.17;;
3783;SDS011;1907;49.238;9.262;2022-07-21T03:57:15;27.67;;;24.73;;
3783;SDS011;1907;49.238;9.262;2022-07-21T03:59:40;33.60;;;26.20;;
3783;SDS011;1907;49.238;9.262;2022-07-21T04:02:06;33.10;;;25.27;;
3783;SDS011;1907;49.238;9.262;2022-07-21T04:04:32;31.53;;;27.67;;
3783;SDS011;1907;49.238;9.262;2022-07-21T04:06:58;25.87;;;23.70;;
3783;SDS011;1907;49.238;9.262;2022-07-21T04:09:23;27.83;;;25.13;;
3783;SDS011;1907;49.238;9.262;2022-07-21T04:11:49;29.23;;;25.70;;
3783;SDS011;1907;49.238;9.262;2022-07-21T04:14:14;26.83;;;24.30;;
3783;SDS011;1907;49.238;9.262;2022-07-21T04:16:40;27.17;;;24.70;;
3783;SDS011;1907;49.238;9.262;2022-07-21T04:19:06;30.17;;;27.30;;
3783;SDS011;1907;49.238;9.262;2022-07-21T04:21:31;26.93;;;24.50;;
3783;SDS011;1907;49.238;9.262;2022-07-21T04:23:57;26.60;;;24.00;;
3783;SDS011;1907;49.238;9.262;2022-07-21T04:26:23;27.27;;;24.57;;
3783;SDS011;1907;49.238;9.262;2022-07-21T04:28:48;26.30;;;23.80;;
3783;SDS011;1907;49.238;9.262;2022-07-21T04:31:14;27.03;;;24.23;;
3783;SDS011;1907;49.238;9.262;2022-07-21T04:33:40;28.37;;;25.50;;
3783;SDS011;1907;49.238;9.262;2022-07-21T04:36:05;25.57;;;23.40;;
3783;SDS011;1907;49.238;9.262;2022-07-21T04:38:31;26.17;;;23.70;;
3783;SDS011;1907;49.238;9.262;2022-07-21T04:40:57;35.73;;;24.37;;
3783;SDS011;1907;49.238;9.262;2022-07-21T04:43:22;25.90;;;23.17;;
3783;SDS011;1907;49.238;9.262;2022-07-21T04:45:48;23.23;;;21.23;;
3783;SDS011;1907;49.238;9.262;2022-07-21T04:48:14;26.20;;;23.70;;
3783;SDS011;1907;49.238;9.262;2022-07-21T04:50:39;25.77;;;23.57;;
3783;SDS011;1907;49.238;9.262;2022-07-21T04:53:05;24.90;;;22.43;;
3783;SDS011;1907;49.238;9.262;2022-07-21T04:55:30;25.07;;;22.47;;
3783;SDS011;1907;49.238;9.262;2022-07-21T04:57:56;22.23;;;20.53;;
3783;SDS011;1907;49.238;9.262;2022-07-21T05:00:24;24.03;;;21.53;;
3783;SDS011;1907;49.238;9.262;2022-07-21T05:02:50;25.33;;;22.90;;
3783;SDS011;1907;49.238;9.262;2022-07-21T05:05:17;23.10;;;20.83;;
3783;SDS011;1907;49.238;9.262;2022-07-21T05:07:43;23.87;;;21.47;;
3783;SDS011;1907;49.238;9.262;2022-07-21T05:10:10;24.77;;;22.37;;
3783;SDS011;1907;49.238;9.262;2022-07-21T05:12:38;22.50;;;20.90;;
3783;SDS011;1907;49.238;9.262;2022-07-21T05:15:04;24.87;;;22.40;;
3783;SDS011;1907;49.238;9.262;2022-07-21T05:17:31;31.03;;;22.57;;
3783;SDS011;1907;49.238;9.262;2022-07-21T05:19:56;23.20;;;21.20;;
3783;SDS011;1907;49.238;9.262;2022-07-21T05:22:23;22.93;;;20.83;;
3783;SDS011;1907;49.238;9.262;2022-07-21T05:24:49;22.03;;;20.40;;
3783;SDS011;1907;49.238;9.262;2022-07-21T05:27:14;22.07;;;20.03;;
3783;SDS011;1907;49.238;9.262;2022-07-21T05:29:40;23.30;;;20.50;;
3783;SDS011;1907;49.238;9.262;2022-07-21T05:32:06;20.30;;;18.60;;
3783;SDS011;1907;49.238;9.262;2022-07-21T05:34:32;23.77;;;20.83;;
3783;SDS011;1907;49.238;9.262;2022-07-21T05:36:57;19.80;;;18.43;;
3783;SDS011;1907;49.238;9.262;2022-07-21T05:39:23;21.57;;;19.90;;
3783;SDS011;1907;49.238;9.262;2022-07-21T05:41:49;22.07;;;20.07;;
3783;SDS011;1907;49.238;9.262;2022-07-21T05:44:14;21.20;;;19.60;;
3783;SDS011;1907;49.238;9.262;2022-07-21T05:46:40;24.10;;;20.60;;
3783;SDS011;1907;49.238;9.262;2022-07-21T05:49:05;19.30;;;17.70;;
3783;SDS011;1907;49.238;9.262;2022-07-21T05:51:31;18.47;;;17.00;;
3783;SDS011;1907;49.238;9.262;2022-07-21T05:53:57;18.17;;;16.63;;
3783;SDS011;1907;49.238;9.262;2022-07-21T05:56:22;18.67;;;17.30;;
3783;SDS011;1907;49.238;9.262;2022-07-21T05:58:48;18.07;;;16.60;;
3783;SDS011;1907;49.238;9.262;2022-07-21T06:01:13;18.17;;;16.80;;
3783;SDS011;1907;49.238;9.262;2022-07-21T06:06:11;15.73;;;14.73;;
3783;SDS011;1907;49.238;9.262;2022-07-21T06:08:39;14.43;;;13.60;;
3783;SDS011;1907;49.238;9.262;2022-07-21T06:11:09;14.37;;;13.57;;
3783;SDS011;1907;49.238;9.262;2022-07-21T06:13:36;15.00;;;13.93;;
3783;SDS011;1907;49.238;9.262;2022-07-21T06:16:02;14.67;;;13.97;;
3783;SDS011;1907;49.238;9.262;2022-07-21T06:18:28;15.27;;;14.17;;
3783;SDS011;1907;49.238;9.262;2022-07-21T06:20:54;13.47;;;12.40;;
3783;SDS011;1907;49.238;9.262;2022-07-21T06:23:19;12.43;;;11.93;;
3783;SDS011;1907;49.238;9.262;2022-07-21T06:25:45;10.70;;;10.10;;
3783;SDS011;1907;49.238;9.262;2022-07-21T06:28:11;10.80;;;10.10;;
3783;SDS011;1907;49.238;9.262;2022-07-21T06:30:37;10.07;;;9.53;;
3783;SDS011;1907;49.238;9.262;2022-07-21T06:33:03;8.33;;;7.73;;
3783;SDS011;1907;49.238;9.262;2022-07-21T06:35:29;9.60;;;9.27;;
3783;SDS011;1907;49.238;9.262;2022-07-21T06:37:54;8.10;;;7.80;;
3783;SDS011;1907;49.238;9.262;2022-07-21T06:40:20;7.20;;;6.90;;
3783;SDS011;1907;49.238;9.262;2022-07-21T06:42:46;7.10;;;6.80;;
3783;SDS011;1907;49.238;9.262;2022-07-21T06:45:11;6.23;;;5.77;;
3783;SDS011;1907;49.238;9.262;2022-07-21T06:47:37;7.00;;;6.70;;
3783;SDS011;1907;49.238;9.262;2022-07-21T06:50:03;6.43;;;5.73;;
3783;SDS011;1907;49.238;9.262;2022-07-21T06:52:29;5.30;;;5.10;;
3783;SDS011;1907;49.238;9.262;2022-07-21T06:54:56;9.03;;;5.30;;
3783;SDS011;1907;49.238;9.262;2022-07-21T06:57:22;5.77;;;5.57;;
3783;SDS011;1907;49.238;9.262;2022-07-21T06:59:47;6.00;;;5.80;;
3783;SDS011;1907;49.238;9.262;2022-07-21T07:02:13;5.47;;;5.27;;
3783;SDS011;1907;49.238;9.262;2022-07-21T07:04:39;5.30;;;5.10;;
3783;SDS011;1907;49.238;9.262;2022-07-21T07:07:05;4.50;;;4.07;;
3783;SDS011;1907;49.238;9.262;2022-07-21T07:09:30;4.40;;;4.10;;
3783;SDS011;1907;49.238;9.262;2022-07-21T07:11:56;4.43;;;4.13;;
3783;SDS011;1907;49.238;9.262;2022-07-21T07:14:33;4.77;;;4.57;;
3783;SDS011;1907;49.238;9.262;2022-07-21T07:17:01;5.50;;;4.30;;
3783;SDS011;1907;49.238;9.262;2022-07-21T07:19:27;4.50;;;4.30;;
3783;SDS011;1907;49.238;9.262;2022-07-21T07:21:53;4.80;;;4.50;;
3783;SDS011;1907;49.238;9.262;2022-07-21T07:24:19;4.57;;;4.47;;
3783;SDS011;1907;49.238;9.262;2022-07-21T07:26:45;4.20;;;4.00;;
3783;SDS011;1907;49.238;9.262;2022-07-21T07:29:11;4.35;;;3.63;;
3783;SDS011;1907;49.238;9.262;2022-07-21T07:31:38;4.83;;;3.30;;
3783;SDS011;1907;49.238;9.262;2022-07-21T07:34:04;3.78;;;3.67;;
3783;SDS011;1907;49.238;9.262;2022-07-21T07:36:30;4.57;;;4.38;;
3783;SDS011;1907;49.238;9.262;2022-07-21T07:38:56;4.70;;;3.53;;
3783;SDS011;1907;49.238;9.262;2022-07-21T07:41:23;3.47;;;3.38;;
3783;SDS011;1907;49.238;9.262;2022-07-21T07:43:50;3.47;;;3.38;;
3783;SDS011;1907;49.238;9.262;2022-07-21T07:46:34;3.50;;;3.40;;
3783;SDS011;1907;49.238;9.262;2022-07-21T07:49:00;4.67;;;4.47;;
3783;SDS011;1907;49.238;9.262;2022-07-21T07:51:25;3.60;;;3.50;;
3783;SDS011;1907;49.238;9.262;2022-07-21T07:53:51;5.00;;;4.80;;
3783;SDS011;1907;49.238;9.262;2022-07-21T07:56:17;4.67;;;4.47;;
3783;SDS011;1907;49.238;9.262;2022-07-21T07:58:42;3.50;;;3.40;;
3783;SDS011;1907;49.238;9.262;2022-07-21T08:01:08;5.90;;;5.70;;
3783;SDS011;1907;49.238;9.262;2022-07-21T08:03:34;6.20;;;5.90;;
3783;SDS011;1907;49.238;9.262;2022-07-21T08:06:00;6.03;;;5.53;;
3783;SDS011;1907;49.238;9.262;2022-07-21T08:08:28;13.60;;;7.33;;
3783;SDS011;1907;49.238;9.262;2022-07-21T08:10:54;5.50;;;5.30;;
3783;SDS011;1907;49.238;9.262;2022-07-21T08:13:21;6.57;;;6.13;;
3783;SDS011;1907;49.238;9.262;2022-07-21T08:15:47;5.97;;;5.73;;
3783;SDS011;1907;49.238;9.262;2022-07-21T08:18:13;5.60;;;5.20;;
3783;SDS011;1907;49.238;9.262;2022-07-21T08:20:39;5.70;;;5.50;;
3783;SDS011;1907;49.238;9.262;2022-07-21T08:23:06;6.10;;;5.90;;
3783;SDS011;1907;49.238;9.262;2022-07-21T08:25:32;6.87;;;6.57;;
3783;SDS011;1907;49.238;9.262;2022-07-21T08:27:57;7.67;;;7.13;;
3783;SDS011;1907;49.238;9.262;2022-07-21T08:30:23;5.90;;;5.70;;
3783;SDS011;1907;49.238;9.262;2022-07-21T08:32:49;7.93;;;7.43;;
3783;SDS011;1907;49.238;9.262;2022-07-21T08:35:15;6.90;;;6.20;;
3783;SDS011;1907;49.238;9.262;2022-07-21T08:37:40;6.40;;;6.20;;
3783;SDS011;1907;49.238;9.262;2022-07-21T08:40:07;6.80;;;6.40;;
3783;SDS011;1907;49.238;9.262;2022-07-21T08:42:36;6.50;;;6.13;;
3783;SDS011;1907;49.238;9.262;2022-07-21T08:45:03;7.07;;;6.57;;
3783;SDS011;1907;49.238;9.262;2022-07-21T08:47:30;6.50;;;6.30;;
3783;SDS011;1907;49.238;9.262;2022-07-21T08:49:56;7.67;;;7.17;;
3783;SDS011;1907;49.238;9.262;2022-07-21T08:52:22;7.30;;;6.90;;
3783;SDS011;1907;49.238;9.262;2022-07-21T08:54:48;7.37;;;7.00;;
3783;SDS011;1907;49.238;9.262;2022-07-21T08:57:14;7.23;;;6.80;;
3783;SDS011;1907;49.238;9.262;2022-07-21T08:59:40;8.63;;;7.13;;
3783;SDS011;1907;49.238;9.262;2022-07-21T09:02:07;11.33;;;7.03;;
3783;SDS011;1907;49.238;9.262;2022-07-21T09:04:53;5.67;;;5.47;;
3783;SDS011;1907;49.238;9.262;2022-07-21T09:07:19;6.70;;;6.40;;
3783;SDS011;1907;49.238;9.262;2022-07-21T09:09:53;5.53;;;5.33;;
3783;SDS011;1907;49.238;9.262;2022-07-21T09:12:26;8.47;;;7.80;;
3783;SDS011;1907;49.238;9.262;2022-07-21T09:15:11;7.03;;;6.73;;
3783;SDS011;1907;49.238;9.262;2022-07-21T09:17:43;6.73;;;6.43;;
3783;SDS011;1907;49.238;9.262;2022-07-21T09:20:22;5.97;;;5.77;;
3783;SDS011;1907;49.238;9.262;2022-07-21T09:23:04;6.90;;;6.60;;
3783;SDS011;1907;49.238;9.262;2022-07-21T09:25:37;6.80;;;6.50;;
3783;SDS011;1907;49.238;9.262;2022-07-21T09:28:29;5.97;;;5.73;;
3783;SDS011;1907;49.238;9.262;2022-07-21T09:33:33;5.93;;;5.67;;
3783;SDS011;1907;49.238;9.262;2022-07-21T09:38:34;6.00;;;5.70;;
3783;SDS011;1907;49.238;9.262;2022-07-21T09:41:13;6.03;;;5.83;;
3783;SDS011;1907;49.238;9.262;2022-07-21T09:43:45;5.90;;;5.60;;
3783;SDS011;1907;49.238;9.262;2022-07-21T09:46:23;6.43;;;6.00;;
3783;SDS011;1907;49.238;9.262;2022-07-21T09:48:55;6.67;;;6.17;;
3783;SDS011;1907;49.238;9.262;2022-07-21T09:54:01;5.53;;;5.33;;
3783;SDS011;1907;49.238;9.262;2022-07-21T09:56:36;5.47;;;5.13;;
3783;SDS011;1907;49.238;9.262;2022-07-21T09:59:04;19.70;;;4.73;;
3783;SDS011;1907;49.238;9.262;2022-07-21T10:01:30;5.40;;;5.20;;
3783;SDS011;1907;49.238;9.262;2022-07-21T10:03:57;4.20;;;3.90;;
3783;SDS011;1907;49.238;9.262;2022-07-21T10:06:25;4.47;;;4.27;;
3783;SDS011;1907;49.238;9.262;2022-07-21T10:08:56;5.40;;;5.10;;
3783;SDS011;1907;49.238;9.262;2022-07-21T10:11:24;7.80;;;4.10;;
3783;SDS011;1907;49.238;9.262;2022-07-21T10:13:50;4.47;;;3.97;;
3783;SDS011;1907;49.238;9.262;2022-07-21T10:16:16;4.27;;;3.67;;
3783;SDS011;1907;49.238;9.262;2022-07-21T10:23:59;4.70;;;4.50;;
3783;SDS011;1907;49.238;9.262;2022-07-21T10:26:25;5.10;;;4.90;;
3783;SDS011;1907;49.238;9.262;2022-07-21T10:28:51;5.00;;;4.77;;
3783;SDS011;1907;49.238;9.262;2022-07-21T10:31:18;5.10;;;4.70;;
3783;SDS011;1907;49.238;9.262;2022-07-21T10:36:11;4.97;;;4.77;;
3783;SDS011;1907;49.238;9.262;2022-07-21T10:41:49;6.53;;;6.07;;
3783;SDS011;1907;49.238;9.262;2022-07-21T10:47:03;4.17;;;3.77;;
3783;SDS011;1907;49.238;9.262;2022-07-21T10:50:14;4.13;;;3.93;;
3783;SDS011;1907;49.238;9.262;2022-07-21T10:57:42;3.93;;;3.63;;
3783;SDS011;1907;49.238;9.262;2022-07-21T11:02:46;3.57;;;3.40;;
3783;SDS011;1907;49.238;9.262;2022-07-21T11:05:20;3.00;;;2.90;;
3783;SDS011;1907;49.238;9.262;2022-07-21T11:10:38;2.77;;;2.67;;
3783;SDS011;1907;49.238;9.262;2022-07-21T11:13:09;2.80;;;2.70;;
3783;SDS011;1907;49.238;9.262;2022-07-21T11:15:48;1.90;;;1.80;;
3783;SDS011;1907;49.238;9.262;2022-07-21T11:18:19;2.57;;;2.47;;
3783;SDS011;1907;49.238;9.262;2022-07-21T11:26:15;2.47;;;2.37;;
3783;SDS011;1907;49.238;9.262;2022-07-21T11:28:42;2.40;;;2.30;;
3783;SDS011;1907;49.238;9.262;2022-07-21T11:31:09;1.93;;;1.83;;
3783;SDS011;1907;49.238;9.262;2022-07-21T11:33:41;2.50;;;2.30;;
3783;SDS011;1907;49.238;9.262;2022-07-21T11:36:09;2.20;;;2.10;;
3783;SDS011;1907;49.238;9.262;2022-07-21T11:38:35;2.57;;;2.30;;
3783;SDS011;1907;49.238;9.262;2022-07-21T11:41:16;2.23;;;2.13;;
3783;SDS011;1907;49.238;9.262;2022-07-21T11:43:43;1.70;;;1.60;;
3783;SDS011;1907;49.238;9.262;2022-07-21T11:46:10;2.30;;;2.20;;
3783;SDS011;1907;49.238;9.262;2022-07-21T11:48:36;2.20;;;2.10;;
3783;SDS011;1907;49.238;9.262;2022-07-21T11:51:02;1.93;;;1.80;;
3783;SDS011;1907;49.238;9.262;2022-07-21T11:53:29;2.30;;;2.20;;
3783;SDS011;1907;49.238;9.262;2022-07-21T11:55:56;2.80;;;2.70;;
3783;SDS011;1907;49.238;9.262;2022-07-21T11:58:22;2.50;;;2.40;;
3783;SDS011;1907;49.238;9.262;2022-07-21T12:00:48;3.47;;;3.37;;
3783;SDS011;1907;49.238;9.262;2022-07-21T12:03:27;4.13;;;4.03;;
3783;SDS011;1907;49.238;9.262;2022-07-21T12:05:53;6.97;;;3.93;;
3783;SDS011;1907;49.238;9.262;2022-07-21T12:08:19;5.10;;;4.70;;
3783;SDS011;1907;49.238;9.262;2022-07-21T12:10:44;3.77;;;3.57;;
3783;SDS011;1907;49.238;9.262;2022-07-21T12:13:10;7.00;;;4.67;;
3783;SDS011;1907;49.238;9.262;2022-07-21T12:15:36;4.57;;;4.37;;
3783;SDS011;1907;49.238;9.262;2022-07-21T12:20:39;7.50;;;5.20;;
3783;SDS011;1907;49.238;9.262;2022-07-21T12:25:54;4.67;;;4.47;;
3783;SDS011;1907;49.238;9.262;2022-07-21T12:30:57;4.60;;;4.40;;
3783;SDS011;1907;49.238;9.262;2022-07-21T12:33:29;4.87;;;4.67;;
3783;SDS011;1907;49.238;9.262;2022-07-21T12:38:38;4.10;;;4.00;;
3783;SDS011;1907;49.238;9.262;2022-07-21T12:41:09;4.83;;;4.63;;
3783;SDS011;1907;49.238;9.262;2022-07-21T12:43:37;5.07;;;4.80;;
3783;SDS011;1907;49.238;9.262;2022-07-21T12:48:43;4.40;;;4.20;;
3783;SDS011;1907;49.238;9.262;2022-07-21T12:53:42;4.90;;;4.60;;
3783;SDS011;1907;49.238;9.262;2022-07-21T12:56:09;5.50;;;4.93;;
3783;SDS011;1907;49.238;9.262;2022-07-21T12:58:36;4.60;;;4.27;;
3783;SDS011;1907;49.238;9.262;2022-07-21T13:01:03;4.37;;;4.17;;
3783;SDS011;1907;49.238;9.262;2022-07-21T13:03:30;5.27;;;4.97;;
3783;SDS011;1907;49.238;9.262;2022-07-21T13:05:57;4.40;;;4.10;;
3783;SDS011;1907;49.238;9.262;2022-07-21T13:08:23;4.30;;;4.10;;
3783;SDS011;1907;49.238;9.262;2022-07-21T13:10:49;4.60;;;4.40;;
3783;SDS011;1907;49.238;9.262;2022-07-21T13:13:14;4.23;;;4.03;;
3783;SDS011;1907;49.238;9.262;2022-07-21T13:15:40;3.93;;;3.73;;
3783;SDS011;1907;49.238;9.262;2022-07-21T13:18:06;3.50;;;3.40;;
3783;SDS011;1907;49.238;9.262;2022-07-21T13:20:31;3.97;;;3.77;;
3783;SDS011;1907;49.238;9.262;2022-07-21T13:22:57;3.57;;;3.47;;
3783;SDS011;1907;49.238;9.262;2022-07-21T13:25:22;5.17;;;4.97;;
3783;SDS011;1907;49.238;9.262;2022-07-21T13:27:48;6.03;;;4.17;;
3783;SDS011;1907;49.238;9.262;2022-07-21T13:30:13;4.97;;;4.37;;
3783;SDS011;1907;49.238;9.262;2022-07-21T13:32:40;3.80;;;3.70;;
3783;SDS011;1907;49.238;9.262;2022-07-21T13:35:05;4.70;;;4.50;;
3783;SDS011;1907;49.238;9.262;2022-07-21T13:37:32;4.30;;;4.20;;
3783;SDS011;1907;49.238;9.262;2022-07-21T13:39:58;4.67;;;4.37;;
3783;SDS011;1907;49.238;9.262;2022-07-21T13:42:23;3.60;;;3.40;;
3783;SDS011;1907;49.238;9.262;2022-07-21T13:44:49;4.50;;;4.20;;
3783;SDS011;1907;49.238;9.262;2022-07-21T13:47:15;4.03;;;3.83;;
3783;SDS011;1907;49.238;9.262;2022-07-21T13:49:40;4.93;;;4.73;;
3783;SDS011;1907;49.238;9.262;2022-07-21T13:52:06;4.00;;;3.67;;
3783;SDS011;1907;49.238;9.262;2022-07-21T13:54:33;4.03;;;3.93;;
3783;SDS011;1907;49.238;9.262;2022-07-21T13:56:59;3.97;;;3.77;;
3783;SDS011;1907;49.238;9.262;2022-07-21T13:59:25;5.40;;;5.10;;
3783;SDS011;1907;49.238;9.262;2022-07-21T14:01:51;3.87;;;3.67;;
3783;SDS011;1907;49.238;9.262;2022-07-21T14:04:17;3.63;;;3.33;;
3783;SDS011;1907;49.238;9.262;2022-07-21T14:06:43;4.20;;;4.00;;
3783;SDS011;1907;49.238;9.262;2022-07-21T14:09:13;4.07;;;3.70;;
3783;SDS011;1907;49.238;9.262;2022-07-21T14:11:39;3.80;;;3.70;;
3783;SDS011;1907;49.238;9.262;2022-07-21T14:14:05;4.20;;;3.90;;
3783;SDS011;1907;49.238;9.262;2022-07-21T14:16:30;4.47;;;4.10;;
3783;SDS011;1907;49.238;9.262;2022-07-21T14:18:56;4.57;;;4.37;;
3783;SDS011;1907;49.238;9.262;2022-07-21T14:21:22;3.97;;;3.77;;
3783;SDS011;1907;49.238;9.262;2022-07-21T14:23:48;4.37;;;4.17;;
3783;SDS011;1907;49.238;9.262;2022-07-21T14:26:34;4.07;;;3.77;;
3783;SDS011;1907;49.238;9.262;2022-07-21T14:29:01;4.00;;;3.73;;
3783;SDS011;1907;49.238;9.262;2022-07-21T14:31:28;4.17;;;3.93;;
3783;SDS011;1907;49.238;9.262;2022-07-21T14:33:53;4.50;;;4.30;;
3783;SDS011;1907;49.238;9.262;2022-07-21T14:36:19;4.00;;;3.90;;
3783;SDS011;1907;49.238;9.262;2022-07-21T14:38:45;3.63;;;3.53;;
3783;SDS011;1907;49.238;9.262;2022-07-21T14:41:10;3.57;;;3.47;;
3783;SDS011;1907;49.238;9.262;2022-07-21T14:43:36;3.50;;;3.40;;
3783;SDS011;1907;49.238;9.262;2022-07-21T14:46:01;3.40;;;3.20;;
3783;SDS011;1907;49.238;9.262;2022-07-21T14:48:27;4.03;;;3.40;;
3783;SDS011;1907;49.238;9.262;2022-07-21T14:50:53;4.13;;;3.90;;
3783;SDS011;1907;49.238;9.262;2022-07-21T14:53:18;6.97;;;5.07;;
3783;SDS011;1907;49.238;9.262;2022-07-21T14:55:44;4.10;;;3.70;;
3783;SDS011;1907;49.238;9.262;2022-07-21T14:58:09;4.10;;;3.90;;
3783;SDS011;1907;49.238;9.262;2022-07-21T15:00:35;4.20;;;4.00;;
3783;SDS011;1907;49.238;9.262;2022-07-21T15:03:01;3.33;;;3.23;;
3783;SDS011;1907;49.238;9.262;2022-07-21T15:05:26;3.90;;;3.10;;
3783;SDS011;1907;49.238;9.262;2022-07-21T15:07:52;3.47;;;3.37;;
3783;SDS011;1907;49.238;9.262;2022-07-21T15:10:18;3.10;;;3.00;;
3783;SDS011;1907;49.238;9.262;2022-07-21T15:12:43;4.07;;;3.87;;
3783;SDS011;1907;49.238;9.262;2022-07-21T15:15:09;3.53;;;3.40;;
3783;SDS011;1907;49.238;9.262;2022-07-21T15:17:35;3.50;;;3.40;;
3783;SDS011;1907;49.238;9.262;2022-07-21T15:20:02;9.67;;;4.67;;
3783;SDS011;1907;49.238;9.262;2022-07-21T15:22:28;3.20;;;3.10;;
3783;SDS011;1907;49.238;9.262;2022-07-21T15:24:58;4.77;;;4.47;;
3783;SDS011;1907;49.238;9.262;2022-07-21T15:27:25;4.37;;;4.17;;
3783;SDS011;1907;49.238;9.262;2022-07-21T15:29:51;3.47;;;3.27;;
3783;SDS011;1907;49.238;9.262;2022-07-21T15:32:16;3.80;;;3.60;;
3783;SDS011;1907;49.238;9.262;2022-07-21T15:34:42;4.30;;;4.00;;
3783;SDS011;1907;49.238;9.262;2022-07-21T15:37:08;4.33;;;4.10;;
3783;SDS011;1907;49.238;9.262;2022-07-21T15:39:35;3.10;;;2.90;;
3783;SDS011;1907;49.238;9.262;2022-07-21T15:42:02;4.30;;;4.10;;
3783;SDS011;1907;49.238;9.262;2022-07-21T15:44:27;3.80;;;3.60;;
3783;SDS011;1907;49.238;9.262;2022-07-21T15:46:53;4.00;;;3.80;;
3783;SDS011;1907;49.238;9.262;2022-07-21T15:49:19;3.93;;;3.63;;
3783;SDS011;1907;49.238;9.262;2022-07-21T15:51:45;14.50;;;4.47;;
3783;SDS011;1907;49.238;9.262;2022-07-21T15:54:11;4.23;;;3.93;;
3783;SDS011;1907;49.238;9.262;2022-07-21T15:56:37;4.60;;;4.20;;
3783;SDS011;1907;49.238;9.262;2022-07-21T15:59:02;3.90;;;3.60;;
3783;SDS011;1907;49.238;9.262;2022-07-21T16:01:46;4.07;;;3.87;;